»·PEaware :: N69TM KLGB-KOXR

N69TM :: KLGB-KOXR

FLIGHT INFORMATION

Flight Status: Arrived
Operator: Privately registered:
United States
More flights under this callsign
Pilot: Ian M. (22977)
Aircraft: Unknown
(EPIC)
More flights by this aircraft type
Origin: KLGB Long Beach
United States
Destination: KOXR Oxnard
United States
More flights between these airports :: More routes between these airports
Route: SLI V23 LAX VNY
File this flight plan on PilotEdge
Remarks: CSTP24
Altitude:
(Current/Filed)
6,000ft
Speed:
(Current/Filed)
250kts
Departed: 20-Feb-21 09:04 PM
Arrived: 20-Feb-21 09:27 PM
Distance/Time
Traveled:
57nm/0:23
Distance/Time
To Go:
Arrived

Flight Plot

Page will automatically refresh every two minutes.


Map Options




Map Legend


Flown Route
Filed Route
Departure Airport
Arrival Airport
Navaid (VOR, NDB)
Fix

Horizontal Profiles

Position Reports

Time Latitude Longitude Heading Altitude Ground
Speed
20-Feb-21 20:34 33.812338 -118.154395 90 46ft 0kts
20-Feb-21 20:35 33.812338 -118.154395 90 46ft 0kts
20-Feb-21 20:36 33.812338 -118.154395 90 46ft 0kts
20-Feb-21 20:37 33.812338 -118.154395 90 46ft 0kts
20-Feb-21 20:38 33.812338 -118.154395 90 46ft 0kts
20-Feb-21 20:39 33.812338 -118.154395 90 46ft 0kts
20-Feb-21 20:40 33.812338 -118.154395 90 46ft 0kts
20-Feb-21 20:41 33.812338 -118.154395 90 46ft 0kts
20-Feb-21 20:42 33.812338 -118.154395 90 46ft 0kts
20-Feb-21 20:43 33.812338 -118.154395 90 46ft 0kts
20-Feb-21 20:44 33.812338 -118.154395 90 46ft 0kts
20-Feb-21 20:45 33.812338 -118.154395 90 46ft 0kts
20-Feb-21 20:46 33.812338 -118.154395 90 46ft 0kts
20-Feb-21 20:47 33.812338 -118.154395 90 46ft 0kts
20-Feb-21 20:48 33.812338 -118.154395 90 46ft 0kts
20-Feb-21 20:49 33.812338 -118.154395 90 46ft 0kts
20-Feb-21 20:50 33.812338 -118.154395 90 46ft 0kts
20-Feb-21 20:51 33.812338 -118.154395 90 46ft 0kts
20-Feb-21 20:52 33.812338 -118.154395 90 46ft 0kts
20-Feb-21 20:53 33.812338 -118.154395 90 46ft 0kts
20-Feb-21 20:54 33.812927 -118.153764 37 44ft 6kts
20-Feb-21 20:55 33.813166 -118.148692 61 39ft 2kts
20-Feb-21 20:56 33.813360 -118.148577 1 40ft 0kts
20-Feb-21 20:57 33.813360 -118.148577 1 40ft 0kts
20-Feb-21 20:58 33.813360 -118.148577 1 40ft 0kts
20-Feb-21 20:59 33.813360 -118.148577 1 40ft 0kts
20-Feb-21 21:00 33.813360 -118.148577 1 40ft 0kts
20-Feb-21 21:01 33.813360 -118.148577 0 39ft 0kts
20-Feb-21 21:02 33.813946 -118.149033 251 39ft 8kts
20-Feb-21 21:03 33.814723 -118.163426 266 595ft 133kts
20-Feb-21 21:04 33.790540 -118.203945 211 2757ft 206kts
20-Feb-21 21:05 33.781450 -118.258889 339 3663ft 215kts
20-Feb-21 21:06 33.832741 -118.297070 313 5494ft 227kts
20-Feb-21 21:07 33.879299 -118.358663 310 5776ft 253kts
20-Feb-21 21:08 33.922384 -118.417363 309 5781ft 228kts
20-Feb-21 21:09 33.981232 -118.441620 349 5781ft 229kts
20-Feb-21 21:10 34.043868 -118.454730 350 5781ft 228kts
20-Feb-21 21:11 34.097244 -118.489938 321 5393ft 220kts
20-Feb-21 21:12 34.132159 -118.544996 281 4792ft 208kts
20-Feb-21 21:13 34.145383 -118.607246 281 4151ft 178kts
20-Feb-21 21:14 34.157396 -118.662300 281 3725ft 157kts
20-Feb-21 21:15 34.168779 -118.713442 281 3733ft 158kts
20-Feb-21 21:16 34.180263 -118.765028 281 3724ft 159kts
20-Feb-21 21:17 34.191721 -118.816480 281 3724ft 158kts
20-Feb-21 21:18 34.196660 -118.868360 261 3725ft 155kts
20-Feb-21 21:19 34.193176 -118.920415 261 3724ft 155kts
20-Feb-21 21:20 34.192281 -118.972073 261 3830ft 145kts
20-Feb-21 21:21 34.196453 -119.027798 274 3216ft 165kts
20-Feb-21 21:22 34.200920 -119.079031 265 1782ft 126kts
20-Feb-21 21:23 34.200470 -119.119370 261 1504ft 141kts
20-Feb-21 21:24 34.200722 -119.161120 262 734ft 105kts
20-Feb-21 21:25 34.200700 -119.194354 262 168ft 90kts
20-Feb-21 21:26 34.200550 -119.210842 243 40ft 13kts

Navigation Log

Ident Type
Flight plan parsing failed, navigation log unavailable